createdAt,value
2018-12-13T00:13:46.491Z,65.98
2018-12-13T00:28:50.063Z,68.94
2018-12-13T00:43:53.657Z,74.99
2018-12-13T00:58:56.595Z,77.26
2018-12-13T01:13:59.229Z,78.56
2018-12-13T01:29:03.886Z,82.64
2018-12-13T01:44:07.480Z,80.71
2018-12-13T01:59:10.710Z,84.02
2018-12-13T02:14:14.138Z,85.44
2018-12-13T02:29:16.996Z,84.09
2018-12-13T02:44:19.547Z,83.23
2018-12-13T02:59:24.197Z,83.11
2018-12-13T03:14:26.749Z,85.63
2018-12-13T03:29:29.603Z,84.67
2018-12-13T03:44:33.701Z,83.30
2018-12-13T03:59:36.240Z,81.55
2018-12-13T04:14:39.468Z,83.47
2018-12-13T04:29:44.220Z,81.57
2018-12-13T04:44:46.925Z,82.51
2018-12-13T04:59:49.956Z,85.37
2018-12-13T05:14:52.723Z,88.35
2018-12-13T05:29:56.094Z,93.62
2018-12-13T05:45:00.175Z,95.51
2018-12-13T06:00:04.158Z,93.74
2018-12-13T06:15:07.066Z,91.94
2018-12-13T06:30:10.848Z,78.38
2018-12-13T06:45:13.722Z,69.43
2018-12-13T07:00:17.089Z,63.25
2018-12-13T07:15:19.846Z,58.76
2018-12-13T07:30:22.498Z,52.81
2018-12-13T07:45:25.129Z,39.16
2018-12-13T08:00:29.207Z,36.24
2018-12-13T08:15:33.098Z,36.85
2018-12-13T08:30:35.656Z,36.06
2018-12-13T08:45:39.321Z,40.38
2018-12-13T09:00:41.876Z,42.36
2018-12-13T09:15:45.152Z,38.35
2018-12-13T09:30:48.821Z,35.29
2018-12-13T09:45:53.114Z,33.41
2018-12-13T10:00:56.009Z,32.00
2018-12-13T10:15:58.709Z,32.94
2018-12-13T10:31:01.373Z,30.71
2018-12-13T10:46:04.367Z,31.46
2018-12-13T11:01:16.369Z,29.96
2018-12-13T11:16:18.933Z,30.02
2018-12-13T11:31:21.497Z,33.06
2018-12-13T11:46:24.049Z,36.66
2018-12-13T12:01:27.561Z,40.55
2018-12-13T12:16:30.401Z,41.90
2018-12-13T12:31:34.539Z,40.92
2018-12-13T12:46:38.203Z,46.90
2018-12-13T13:01:42.120Z,50.75
2018-12-13T13:16:45.033Z,56.97
2018-12-13T13:31:48.521Z,58.90
2018-12-13T13:46:52.837Z,57.98
2018-12-13T14:01:55.598Z,62.39
2018-12-13T14:16:58.605Z,62.92
2018-12-13T14:32:01.624Z,58.54
2018-12-13T14:47:04.388Z,57.97
2018-12-13T15:02:06.938Z,55.02
2018-12-13T15:17:11.671Z,56.18
2018-12-13T15:32:14.218Z,56.76
2018-12-13T15:47:17.605Z,58.87
2018-12-13T16:02:20.665Z,57.91
2018-12-13T16:17:23.438Z,58.93
2018-12-13T16:32:25.993Z,58.92
2018-12-13T16:47:28.862Z,58.83
2018-12-13T17:02:34.774Z,61.59
2018-12-13T17:17:37.581Z,62.27
2018-12-13T17:32:40.165Z,65.42
2018-12-13T17:47:43.006Z,67.10
2018-12-13T18:02:45.566Z,69.68
2018-12-13T18:17:49.175Z,66.34
2018-12-13T18:32:53.337Z,67.31
2018-12-13T18:47:56.241Z,69.06
2018-12-13T19:02:59.659Z,70.26
2018-12-13T19:18:04.658Z,70.17
2018-12-13T19:33:07.568Z,66.80
2018-12-13T19:48:10.446Z,67.22
2018-12-13T20:03:13.067Z,69.30
2018-12-13T20:18:16.885Z,70.59
2018-12-13T20:33:19.515Z,72.22
2018-12-13T20:48:22.525Z,72.37
2018-12-13T21:03:25.084Z,70.88
2018-12-13T21:18:27.704Z,71.78
2018-12-13T21:33:30.265Z,75.31
2018-12-13T21:48:34.294Z,74.48
2018-12-13T22:03:37.026Z,74.77
2018-12-13T22:18:43.037Z,75.76
2018-12-13T22:33:46.568Z,76.27
2018-12-13T22:48:49.614Z,77.72
2018-12-13T23:03:52.401Z,77.71
2018-12-13T23:18:56.297Z,77.14
2018-12-13T23:33:59.852Z,78.74
2018-12-13T23:49:03.474Z,79.59
